Lincolnshire Woods, Illinois
Current Conditions -  °F | °C
As of 3:52 AM on Thursday 18 Dec 2014 (Local Time) from KPWK Reporting Station
Clear Clear  
Wind Chill: 20°   Ceiling: Unl
Heat Index: 20°   Visibility: 10mi
Dew Point: 14°   Wind: 3mph
Humidity: 78%   Direction: 280°W
Pressure: 30.3"   Gusts: NA
Location:  42.2369°N, 87.8684°W
Report Text: KPWK 180952Z AUTO 28003KT 10SM CLR M07/M10 A3030 RMK AO2 SLP269 T10671100
Loading
Personal Weather Stations






























Interactive Weather Map New forecast layout! Learn more

10-Day Weather Forecast

Advertisements
Track Severe Weather on mobile